createdAt,value
2019-01-12T00:00:49.238Z,5.20
2019-01-12T00:03:15.256Z,5.20
2019-01-12T00:05:54.664Z,5.40
2019-01-12T00:08:20.950Z,5.60
2019-01-12T00:10:47.311Z,5.70
2019-01-12T00:13:13.330Z,5.80
2019-01-12T00:15:39.343Z,6.00
2019-01-12T00:18:05.714Z,5.80
2019-01-12T00:20:31.727Z,5.60
2019-01-12T00:22:57.813Z,5.50
2019-01-12T00:25:23.850Z,5.40
2019-01-12T00:27:49.917Z,5.40
2019-01-12T00:30:16.027Z,5.50
2019-01-12T00:32:42.044Z,5.20
2019-01-12T00:35:08.374Z,5.20
2019-01-12T00:37:34.421Z,5.40
2019-01-12T00:40:00.472Z,5.50
2019-01-12T00:42:26.566Z,5.50
2019-01-12T00:44:52.567Z,5.60
2019-01-12T00:47:18.569Z,5.60
2019-01-12T00:49:44.585Z,5.80
2019-01-12T00:52:10.590Z,5.80
2019-01-12T00:54:38.592Z,5.70
2019-01-12T00:57:04.725Z,5.70
2019-01-12T00:59:30.846Z,5.60
2019-01-12T01:01:56.843Z,5.70
2019-01-12T01:04:23.038Z,5.70
2019-01-12T01:06:49.439Z,5.50
2019-01-12T01:09:15.473Z,5.60
2019-01-12T01:11:41.579Z,5.70
2019-01-12T01:14:07.643Z,5.80
2019-01-12T01:16:33.912Z,5.70
2019-01-12T01:18:59.914Z,5.50
2019-01-12T01:21:26.026Z,5.60
2019-01-12T01:23:52.026Z,5.90
2019-01-12T01:26:18.026Z,5.90
2019-01-12T01:28:44.265Z,5.80
2019-01-12T01:31:10.263Z,6.00
2019-01-12T01:33:36.261Z,5.90
2019-01-12T01:36:02.478Z,5.90
2019-01-12T01:38:28.485Z,6.00
2019-01-12T01:40:54.496Z,6.10
2019-01-12T01:43:20.550Z,6.20
2019-01-12T01:45:46.572Z,6.10
2019-01-12T01:48:12.570Z,6.10
2019-01-12T01:50:38.582Z,6.00
2019-01-12T01:53:04.654Z,6.00
2019-01-12T01:55:30.706Z,6.00
2019-01-12T01:57:56.728Z,6.00
2019-01-12T02:00:22.749Z,6.10
2019-01-12T02:02:48.763Z,6.00
2019-01-12T02:05:15.002Z,5.90
2019-01-12T02:07:41.097Z,5.90
2019-01-12T02:10:13.659Z,5.80
2019-01-12T02:12:39.645Z,5.70
2019-01-12T02:15:08.955Z,5.50
2019-01-12T02:17:35.233Z,5.50
2019-01-12T02:20:01.367Z,5.70
2019-01-12T02:22:27.437Z,5.80
2019-01-12T02:24:59.757Z,5.80
2019-01-12T02:27:21.614Z,5.90
2019-01-12T02:29:47.859Z,6.00
2019-01-12T02:32:14.126Z,5.90
2019-01-12T02:34:40.127Z,5.90
2019-01-12T02:37:06.139Z,5.90
2019-01-12T02:39:32.143Z,5.90
2019-01-12T02:41:58.383Z,6.00
2019-01-12T02:44:24.394Z,6.10
2019-01-12T02:46:50.394Z,6.10
2019-01-12T02:49:16.629Z,6.20
2019-01-12T02:51:42.654Z,6.10
2019-01-12T02:54:08.653Z,6.00
2019-01-12T02:56:34.654Z,6.10
2019-01-12T02:59:00.673Z,6.20
2019-01-12T03:01:26.712Z,6.30
2019-01-12T03:03:52.949Z,6.40
2019-01-12T03:06:18.950Z,6.50
2019-01-12T03:08:44.950Z,6.50
2019-01-12T03:11:10.962Z,6.50
2019-01-12T03:13:36.959Z,6.60
2019-01-12T03:16:03.571Z,6.60
2019-01-12T03:18:29.567Z,6.60
2019-01-12T03:20:55.573Z,6.60
2019-01-12T03:23:21.587Z,6.60
2019-01-12T03:25:47.595Z,6.60
2019-01-12T03:28:13.599Z,6.50
2019-01-12T03:30:39.861Z,6.50
2019-01-12T03:33:06.092Z,6.50
2019-01-12T03:35:32.117Z,6.40
2019-01-12T03:37:58.118Z,6.40
2019-01-12T03:40:24.471Z,6.40
2019-01-12T03:42:50.481Z,6.40
2019-01-12T03:45:16.687Z,6.30
2019-01-12T03:47:42.709Z,6.30
2019-01-12T03:50:10.937Z,6.20
2019-01-12T03:52:37.166Z,6.20
2019-01-12T03:55:03.706Z,6.20
2019-01-12T03:57:29.710Z,6.30
2019-01-12T03:59:55.744Z,6.40
2019-01-12T04:02:21.758Z,6.50
2019-01-12T04:04:47.753Z,6.50
2019-01-12T04:07:14.002Z,6.40
2019-01-12T04:09:40.005Z,6.40
2019-01-12T04:12:06.243Z,6.50
2019-01-12T04:14:32.463Z,6.40
2019-01-12T04:16:58.698Z,6.30
2019-01-12T04:19:24.953Z,6.30
2019-01-12T04:21:50.969Z,6.20
2019-01-12T04:24:16.970Z,6.30
2019-01-12T04:26:42.994Z,6.30
2019-01-12T04:29:08.986Z,6.40
2019-01-12T04:31:35.321Z,6.40
2019-01-12T04:34:01.318Z,6.50
2019-01-12T04:36:27.569Z,6.50
2019-01-12T04:38:53.564Z,6.50
2019-01-12T04:41:19.565Z,6.50
2019-01-12T04:43:45.828Z,6.60
2019-01-12T04:46:12.041Z,6.50
2019-01-12T04:48:38.046Z,6.50
2019-01-12T04:51:04.060Z,6.40
2019-01-12T04:53:30.315Z,6.40
2019-01-12T04:55:56.314Z,6.30
2019-01-12T04:58:22.325Z,6.30
2019-01-12T05:00:48.342Z,6.30
2019-01-12T05:03:14.360Z,6.40
2019-01-12T05:05:40.359Z,6.40
2019-01-12T05:08:06.363Z,6.40
2019-01-12T05:10:32.366Z,6.40
2019-01-12T05:12:58.385Z,6.30
2019-01-12T05:15:24.381Z,6.40
2019-01-12T05:17:50.400Z,6.40
2019-01-12T05:20:17.405Z,6.50
2019-01-12T05:22:43.712Z,6.40
2019-01-12T05:25:09.720Z,6.40
2019-01-12T05:27:35.734Z,6.30
2019-01-12T05:30:05.241Z,6.30
2019-01-12T05:32:31.357Z,6.30
2019-01-12T05:34:57.358Z,6.30
2019-01-12T05:37:23.586Z,6.30
2019-01-12T05:39:49.605Z,6.20
2019-01-12T05:42:15.605Z,6.20
2019-01-12T05:44:41.621Z,6.20
2019-01-12T05:47:07.854Z,6.30
2019-01-12T05:49:33.949Z,6.30
2019-01-12T05:51:59.953Z,6.30
2019-01-12T05:54:26.204Z,6.30
2019-01-12T05:56:52.220Z,6.20
2019-01-12T05:59:18.203Z,6.20
2019-01-12T06:01:44.226Z,6.10
2019-01-12T06:04:10.227Z,6.10
2019-01-12T06:06:36.465Z,6.20
2019-01-12T06:09:05.167Z,6.10
2019-01-12T06:11:31.181Z,6.20
2019-01-12T06:13:57.181Z,6.20
2019-01-12T06:16:23.194Z,6.30
2019-01-12T06:18:49.432Z,6.20
2019-01-12T06:21:15.449Z,6.20
2019-01-12T06:23:41.470Z,6.10
2019-01-12T06:26:07.454Z,6.00
2019-01-12T06:28:33.718Z,5.90
2019-01-12T06:30:59.729Z,5.70
2019-01-12T06:33:25.957Z,5.70
2019-01-12T06:35:51.969Z,5.50
2019-01-12T06:38:18.200Z,5.40
2019-01-12T06:40:44.441Z,5.50
2019-01-12T06:43:10.445Z,5.50
2019-01-12T06:45:36.704Z,5.50
2019-01-12T06:48:02.793Z,5.60
2019-01-12T06:50:29.017Z,5.70
2019-01-12T06:52:55.281Z,5.80
2019-01-12T06:55:21.289Z,5.80
2019-01-12T06:57:47.303Z,5.90
2019-01-12T07:00:15.525Z,5.90
2019-01-12T07:02:41.582Z,5.80
2019-01-12T07:05:07.777Z,5.90
2019-01-12T07:07:33.789Z,5.90
2019-01-12T07:09:59.797Z,6.00
2019-01-12T07:12:25.813Z,5.90
2019-01-12T07:14:51.812Z,6.00
2019-01-12T07:17:17.821Z,5.90
2019-01-12T07:19:43.825Z,6.00
2019-01-12T07:22:09.933Z,6.00
2019-01-12T07:24:35.937Z,6.10
2019-01-12T07:27:01.943Z,6.10
2019-01-12T07:29:27.953Z,6.20
2019-01-12T07:31:54.177Z,6.20
2019-01-12T07:34:20.458Z,6.30
2019-01-12T07:36:46.469Z,6.20
2019-01-12T07:39:12.497Z,6.30
2019-01-12T07:41:38.507Z,6.20
2019-01-12T07:44:04.524Z,6.20
2019-01-12T07:46:30.535Z,6.30
2019-01-12T07:48:56.779Z,6.30
2019-01-12T07:51:22.778Z,6.40
2019-01-12T07:53:49.014Z,6.40
2019-01-12T07:56:15.052Z,6.40
2019-01-12T07:58:41.049Z,6.30
2019-01-12T08:01:07.081Z,6.30
2019-01-12T08:03:33.189Z,6.30
2019-01-12T08:05:59.180Z,6.40
2019-01-12T08:08:25.193Z,6.50
2019-01-12T08:10:51.180Z,6.60
2019-01-12T08:13:17.440Z,6.70
2019-01-12T08:15:43.458Z,6.90
2019-01-12T08:18:09.661Z,7.00
2019-01-12T08:20:35.671Z,7.00
2019-01-12T08:23:01.678Z,6.90
2019-01-12T08:25:27.917Z,6.80
2019-01-12T08:27:54.042Z,6.80
2019-01-12T08:30:20.045Z,6.70
2019-01-12T08:32:46.287Z,6.70
2019-01-12T08:35:13.282Z,6.80
2019-01-12T08:37:39.522Z,6.80
2019-01-12T08:40:08.470Z,6.80
2019-01-12T08:42:34.490Z,6.90
2019-01-12T08:45:00.497Z,7.00
2019-01-12T08:47:26.557Z,7.10
2019-01-12T08:49:52.821Z,7.20
2019-01-12T08:52:18.851Z,7.20
2019-01-12T08:54:45.075Z,7.20
2019-01-12T08:57:11.065Z,7.30
2019-01-12T08:59:37.396Z,7.50
2019-01-12T09:02:03.491Z,7.60
2019-01-12T09:04:29.501Z,7.60
2019-01-12T09:06:55.733Z,7.70
2019-01-12T09:09:21.746Z,7.80
2019-01-12T09:11:47.754Z,7.70
2019-01-12T09:14:13.805Z,7.70
2019-01-12T09:16:39.865Z,7.60
2019-01-12T09:19:05.880Z,7.60
2019-01-12T09:21:31.878Z,7.60
2019-01-12T09:23:57.890Z,7.60
2019-01-12T09:26:23.889Z,7.60
2019-01-12T09:28:49.896Z,7.70
2019-01-12T09:31:15.914Z,7.70
2019-01-12T09:33:41.949Z,7.80
2019-01-12T09:36:07.977Z,7.70
2019-01-12T09:38:34.010Z,7.80
2019-01-12T09:41:00.094Z,7.80
2019-01-12T09:43:26.322Z,7.80
2019-01-12T09:45:52.349Z,7.70
2019-01-12T09:48:18.586Z,7.80
2019-01-12T09:50:44.673Z,7.80
2019-01-12T09:53:10.682Z,7.70
2019-01-12T09:55:36.668Z,7.70
2019-01-12T09:58:02.788Z,7.60
2019-01-12T10:00:28.803Z,7.40
2019-01-12T10:02:54.822Z,7.40
2019-01-12T10:05:20.817Z,7.40
2019-01-12T10:07:46.811Z,7.40
2019-01-12T10:10:14.827Z,7.40
2019-01-12T10:12:40.838Z,7.40
2019-01-12T10:15:08.270Z,7.40
2019-01-12T10:17:34.291Z,7.30
2019-01-12T10:20:00.286Z,7.40
2019-01-12T10:22:28.683Z,7.30
2019-01-12T10:24:54.228Z,7.40
2019-01-12T10:27:20.449Z,7.50
2019-01-12T10:29:46.457Z,7.40
2019-01-12T10:32:12.457Z,7.40
2019-01-12T10:34:38.478Z,7.40
2019-01-12T10:37:05.065Z,7.40
2019-01-12T10:39:31.069Z,7.30
2019-01-12T10:41:57.309Z,7.40
2019-01-12T10:44:23.553Z,7.30
2019-01-12T10:46:49.561Z,7.30
2019-01-12T10:49:15.782Z,7.30
2019-01-12T10:51:41.801Z,7.30
2019-01-12T10:54:07.914Z,7.20
2019-01-12T10:56:33.935Z,7.30
2019-01-12T10:59:00.079Z,7.20
2019-01-12T11:01:26.410Z,7.20
2019-01-12T11:03:52.422Z,7.30
2019-01-12T11:06:18.425Z,7.30
2019-01-12T11:08:44.546Z,7.30
2019-01-12T11:11:10.787Z,7.30
2019-01-12T11:13:36.795Z,7.30
2019-01-12T11:16:03.121Z,7.30
2019-01-12T11:18:29.127Z,7.40
2019-01-12T11:20:55.254Z,7.50
2019-01-12T11:23:21.253Z,7.70
2019-01-12T11:25:47.253Z,7.70
2019-01-12T11:28:13.291Z,8.00
2019-01-12T11:30:39.322Z,8.30
2019-01-12T11:33:05.543Z,8.50
2019-01-12T11:35:31.773Z,8.20
2019-01-12T11:37:57.769Z,8.10
2019-01-12T11:40:23.768Z,8.00
2019-01-12T11:42:50.405Z,7.80
2019-01-12T11:45:17.011Z,7.80
2019-01-12T11:47:43.221Z,7.60
2019-01-12T11:50:11.530Z,7.60
2019-01-12T11:52:37.775Z,7.60
2019-01-12T11:55:05.905Z,7.50
2019-01-12T11:57:32.133Z,7.50
2019-01-12T11:59:58.357Z,7.50
2019-01-12T12:02:24.663Z,7.50
2019-01-12T12:04:50.677Z,7.50
2019-01-12T12:07:16.680Z,7.50
2019-01-12T12:09:42.797Z,7.40
2019-01-12T12:12:09.056Z,7.40
2019-01-12T12:14:35.166Z,7.30
2019-01-12T12:17:01.269Z,7.30
2019-01-12T12:19:27.489Z,7.20
2019-01-12T12:21:53.735Z,7.20
2019-01-12T12:24:19.768Z,7.30
2019-01-12T12:26:45.833Z,7.20
2019-01-12T12:29:11.836Z,7.10
2019-01-12T12:31:38.097Z,7.30
2019-01-12T12:34:04.107Z,7.30
2019-01-12T12:36:30.110Z,7.30
2019-01-12T12:38:56.113Z,7.30
2019-01-12T12:41:22.118Z,7.30
2019-01-12T12:43:48.130Z,7.40
2019-01-12T12:46:14.135Z,7.30
2019-01-12T12:48:40.145Z,7.40
2019-01-12T12:51:06.364Z,7.50
2019-01-12T12:53:32.592Z,7.50
2019-01-12T12:55:58.839Z,7.60
2019-01-12T12:58:25.082Z,7.60
2019-01-12T13:00:51.085Z,7.60
2019-01-12T13:03:17.111Z,7.60
2019-01-12T13:05:43.145Z,7.60
2019-01-12T13:08:09.429Z,7.60
2019-01-12T13:10:35.502Z,7.60
2019-01-12T13:13:01.607Z,7.60
2019-01-12T13:15:27.744Z,7.60
2019-01-12T13:17:53.964Z,7.60
2019-01-12T13:20:20.684Z,7.60
2019-01-12T13:22:46.953Z,7.60
2019-01-12T13:25:13.769Z,7.60
2019-01-12T13:27:40.196Z,7.60
2019-01-12T13:30:10.253Z,7.50
2019-01-12T13:32:36.269Z,7.50
2019-01-12T13:35:04.200Z,7.50
2019-01-12T13:37:30.247Z,7.40
2019-01-12T13:39:56.254Z,7.40
2019-01-12T13:42:22.576Z,7.30
2019-01-12T13:44:48.586Z,7.50
2019-01-12T13:47:20.674Z,7.40
2019-01-12T13:49:42.729Z,7.40
2019-01-12T13:52:08.747Z,7.30
2019-01-12T13:54:35.003Z,7.40
2019-01-12T13:57:01.054Z,7.40
2019-01-12T13:59:27.132Z,7.40
2019-01-12T14:01:53.255Z,7.40
2019-01-12T14:04:19.269Z,7.40
2019-01-12T14:06:45.294Z,7.30
2019-01-12T14:09:11.297Z,7.30
2019-01-12T14:11:37.532Z,7.20
2019-01-12T14:14:03.637Z,7.10
2019-01-12T14:16:29.857Z,7.10
2019-01-12T14:18:55.876Z,7.20
2019-01-12T14:21:22.693Z,7.10
2019-01-12T14:23:48.707Z,7.20
2019-01-12T14:26:14.705Z,7.20
2019-01-12T14:28:40.733Z,7.20
2019-01-12T14:31:06.968Z,7.20
2019-01-12T14:33:32.961Z,7.10
2019-01-12T14:35:59.220Z,7.20
2019-01-12T14:38:25.227Z,7.10
2019-01-12T14:40:51.220Z,7.30
2019-01-12T14:43:17.449Z,7.30
2019-01-12T14:45:43.695Z,7.20
2019-01-12T14:48:09.693Z,7.00
2019-01-12T14:50:35.688Z,7.00
2019-01-12T14:53:01.743Z,6.90
2019-01-12T14:55:27.806Z,6.90
2019-01-12T14:57:54.051Z,7.00
2019-01-12T15:00:25.065Z,7.00
2019-01-12T15:02:51.095Z,6.80
2019-01-12T15:05:20.127Z,6.90
2019-01-12T15:07:46.112Z,6.80
2019-01-12T15:10:14.651Z,6.90
2019-01-12T15:12:40.722Z,6.80
2019-01-12T15:15:09.535Z,6.90
2019-01-12T15:17:35.563Z,6.80
2019-01-12T15:20:03.769Z,6.90
2019-01-12T15:22:29.773Z,6.90
2019-01-12T15:24:55.786Z,6.80
2019-01-12T15:27:21.786Z,6.70
2019-01-12T15:29:47.782Z,6.70
2019-01-12T15:32:13.930Z,6.70
2019-01-12T15:34:39.933Z,6.80
2019-01-12T15:37:05.938Z,6.80
2019-01-12T15:39:32.182Z,6.80
2019-01-12T15:41:58.177Z,6.80
2019-01-12T15:44:25.597Z,6.80
2019-01-12T15:46:51.618Z,6.60
2019-01-12T15:49:17.609Z,6.70
2019-01-12T15:51:43.652Z,6.60
2019-01-12T15:54:09.649Z,6.60
2019-01-12T15:56:35.872Z,6.70
2019-01-12T15:59:02.113Z,6.60
2019-01-12T16:01:28.353Z,6.70
2019-01-12T16:03:54.382Z,6.70
2019-01-12T16:06:20.610Z,6.80
2019-01-12T16:08:46.625Z,6.70
2019-01-12T16:11:12.616Z,6.70
2019-01-12T16:13:38.638Z,6.70
2019-01-12T16:16:05.033Z,6.60
2019-01-12T16:18:31.257Z,6.50
2019-01-12T16:20:57.258Z,6.50
2019-01-12T16:23:23.279Z,6.50
2019-01-12T16:25:49.282Z,6.60
2019-01-12T16:28:15.296Z,6.70
2019-01-12T16:30:41.317Z,6.80
2019-01-12T16:33:07.585Z,6.70
2019-01-12T16:35:33.572Z,6.80
2019-01-12T16:37:59.818Z,6.80
2019-01-12T16:40:25.929Z,6.80
2019-01-12T16:42:52.049Z,6.70
2019-01-12T16:45:18.045Z,6.70
2019-01-12T16:47:44.275Z,6.80
2019-01-12T16:50:10.482Z,6.70
2019-01-12T16:52:36.505Z,6.70
2019-01-12T16:55:05.301Z,6.70
2019-01-12T16:57:31.543Z,6.70
2019-01-12T16:59:57.822Z,6.70
2019-01-12T17:02:23.976Z,6.70
2019-01-12T17:04:49.989Z,6.60
2019-01-12T17:07:16.318Z,6.60
2019-01-12T17:09:42.321Z,6.60
2019-01-12T17:12:08.344Z,6.70
2019-01-12T17:14:34.578Z,6.60
2019-01-12T17:17:00.819Z,6.60
2019-01-12T17:19:26.825Z,6.60
2019-01-12T17:21:53.073Z,6.60
2019-01-12T17:24:19.077Z,6.60
2019-01-12T17:26:45.304Z,6.70
2019-01-12T17:29:17.715Z,6.80
2019-01-12T17:31:39.776Z,6.80
2019-01-12T17:34:06.014Z,6.70
2019-01-12T17:36:32.030Z,6.60
2019-01-12T17:38:58.029Z,6.60
2019-01-12T17:41:24.158Z,6.70
2019-01-12T17:43:50.171Z,6.60
2019-01-12T17:46:16.201Z,6.60
2019-01-12T17:48:42.207Z,6.60
2019-01-12T17:51:08.247Z,6.60
2019-01-12T17:53:34.253Z,6.60
2019-01-12T17:56:00.469Z,6.70
2019-01-12T17:58:26.470Z,6.60
2019-01-12T18:00:52.717Z,6.60
2019-01-12T18:03:19.006Z,6.60
2019-01-12T18:05:46.331Z,6.60
2019-01-12T18:08:12.655Z,6.60
2019-01-12T18:10:38.680Z,6.50
2019-01-12T18:13:04.936Z,6.50
2019-01-12T18:15:30.953Z,6.50
2019-01-12T18:17:56.962Z,6.60
2019-01-12T18:20:24.379Z,6.60
2019-01-12T18:22:50.618Z,6.60
2019-01-12T18:25:17.065Z,6.60
2019-01-12T18:27:43.224Z,6.70
2019-01-12T18:30:20.699Z,6.60
2019-01-12T18:32:46.721Z,6.60
2019-01-12T18:35:12.733Z,6.50
2019-01-12T18:37:38.754Z,6.50
2019-01-12T18:40:08.591Z,6.60
2019-01-12T18:42:34.595Z,6.40
2019-01-12T18:45:00.617Z,6.50
2019-01-12T18:47:26.621Z,6.50
2019-01-12T18:49:52.662Z,6.50
2019-01-12T18:52:18.674Z,6.50
2019-01-12T18:54:44.678Z,6.50
2019-01-12T18:57:10.704Z,6.50
2019-01-12T18:59:36.704Z,6.50
2019-01-12T19:02:02.806Z,6.60
2019-01-12T19:04:29.043Z,6.60
2019-01-12T19:06:55.057Z,6.60
2019-01-12T19:09:21.062Z,6.60
2019-01-12T19:11:47.081Z,6.60
2019-01-12T19:14:13.323Z,6.70
2019-01-12T19:16:39.349Z,6.60
2019-01-12T19:19:05.351Z,6.50
2019-01-12T19:21:31.356Z,6.50
2019-01-12T19:23:57.382Z,6.60
2019-01-12T19:26:23.388Z,6.60
2019-01-12T19:28:49.386Z,6.50
2019-01-12T19:31:15.391Z,6.50
2019-01-12T19:33:41.393Z,6.60
2019-01-12T19:36:07.409Z,6.50
2019-01-12T19:38:33.669Z,6.60
2019-01-12T19:40:59.697Z,6.50
2019-01-12T19:43:25.699Z,6.60
2019-01-12T19:45:51.705Z,6.50
2019-01-12T19:48:17.701Z,6.50
2019-01-12T19:50:43.735Z,6.50
2019-01-12T19:53:09.738Z,6.50
2019-01-12T19:55:35.734Z,6.60
2019-01-12T19:58:01.768Z,6.70
2019-01-12T20:00:27.967Z,6.60
2019-01-12T20:02:53.998Z,6.60
2019-01-12T20:05:20.008Z,6.60
2019-01-12T20:07:46.018Z,6.50
2019-01-12T20:10:13.725Z,6.40
2019-01-12T20:12:39.724Z,6.50
2019-01-12T20:15:09.585Z,6.70
2019-01-12T20:17:35.869Z,6.80
2019-01-12T20:20:05.089Z,6.70
2019-01-12T20:22:31.128Z,6.70
2019-01-12T20:24:57.134Z,6.60
2019-01-12T20:27:23.130Z,6.50
2019-01-12T20:29:49.145Z,6.50
2019-01-12T20:32:21.938Z,6.50
2019-01-12T20:34:48.281Z,6.60
2019-01-12T20:37:18.086Z,6.70
2019-01-12T20:39:47.898Z,6.70
2019-01-12T20:42:35.746Z,6.70
2019-01-12T20:45:11.426Z,6.70
2019-01-12T20:47:41.225Z,6.80
2019-01-12T20:50:14.293Z,6.70
2019-01-12T20:52:47.368Z,6.70
2019-01-12T20:55:32.264Z,6.70
2019-01-12T20:58:23.244Z,6.70
2019-01-12T21:01:14.480Z,6.60
2019-01-12T21:03:50.081Z,6.70
2019-01-12T21:06:19.904Z,6.80
2019-01-12T21:08:55.580Z,6.80
2019-01-12T21:11:31.533Z,6.70
2019-01-12T21:14:04.105Z,6.70
2019-01-12T21:16:31.624Z,6.70
2019-01-12T21:18:57.850Z,6.80
2019-01-12T21:21:24.103Z,6.70
2019-01-12T21:23:50.338Z,6.70
2019-01-12T21:26:16.341Z,6.70
2019-01-12T21:28:42.357Z,6.70
2019-01-12T21:31:08.362Z,6.80
2019-01-12T21:33:34.616Z,6.90
2019-01-12T21:36:00.612Z,6.90
2019-01-12T21:38:26.625Z,7.00
2019-01-12T21:40:52.617Z,7.00
2019-01-12T21:43:18.634Z,7.10
2019-01-12T21:45:44.637Z,7.10
2019-01-12T21:48:10.885Z,7.10
2019-01-12T21:50:37.122Z,7.10
2019-01-12T21:53:03.171Z,7.20
2019-01-12T21:55:29.176Z,7.30
2019-01-12T21:57:55.395Z,7.40
2019-01-12T22:00:21.420Z,7.40
2019-01-12T22:02:47.427Z,7.30
2019-01-12T22:05:13.458Z,7.30
2019-01-12T22:07:39.461Z,7.20
2019-01-12T22:10:09.287Z,7.30
2019-01-12T22:12:35.290Z,7.30
2019-01-12T22:15:01.518Z,7.00
2019-01-12T22:17:27.733Z,6.90
2019-01-12T22:19:53.746Z,6.80
2019-01-12T22:22:19.749Z,6.70
2019-01-12T22:24:45.969Z,6.50
2019-01-12T22:27:12.210Z,6.50
2019-01-12T22:29:38.204Z,6.50
2019-01-12T22:32:04.457Z,6.50
2019-01-12T22:34:30.477Z,6.50
2019-01-12T22:36:56.486Z,6.60
2019-01-12T22:39:22.486Z,6.70
2019-01-12T22:41:48.501Z,6.70
2019-01-12T22:44:14.730Z,6.80
2019-01-12T22:46:41.089Z,6.80
2019-01-12T22:49:07.314Z,6.80
2019-01-12T22:51:33.302Z,6.90
2019-01-12T22:53:59.645Z,6.90
2019-01-12T22:56:25.650Z,6.90
2019-01-12T22:58:51.657Z,7.00
2019-01-12T23:01:22.152Z,7.10
2019-01-12T23:03:48.394Z,7.10
2019-01-12T23:06:14.393Z,7.00
2019-01-12T23:08:40.501Z,7.00
2019-01-12T23:11:06.725Z,7.00
2019-01-12T23:13:32.740Z,6.90
2019-01-12T23:15:58.747Z,6.80
2019-01-12T23:18:24.753Z,6.90
2019-01-12T23:20:50.852Z,6.90
2019-01-12T23:23:17.090Z,6.90
2019-01-12T23:25:43.102Z,7.00
2019-01-12T23:28:09.109Z,6.90
2019-01-12T23:30:35.121Z,6.90
2019-01-12T23:33:01.121Z,6.90
2019-01-12T23:35:27.313Z,7.00
2019-01-12T23:37:53.318Z,7.00
2019-01-12T23:40:19.421Z,7.00
2019-01-12T23:42:45.683Z,6.80
2019-01-12T23:45:12.689Z,6.80
2019-01-12T23:47:38.710Z,6.60
2019-01-12T23:50:09.498Z,6.50
2019-01-12T23:52:35.520Z,6.50
2019-01-12T23:55:01.994Z,6.50
2019-01-12T23:57:27.994Z,6.40
2019-01-12T23:59:54.253Z,6.40
